createdAt,value
2022-10-24T00:01:24.769Z,100.00
2022-10-24T00:03:52.597Z,100.00
2022-10-24T00:06:22.442Z,100.00
2022-10-24T00:08:50.286Z,100.00
2022-10-24T00:11:20.983Z,100.00
2022-10-24T00:13:48.986Z,100.00
2022-10-24T00:16:16.804Z,100.00
2022-10-24T00:18:44.971Z,100.00
2022-10-24T00:21:13.087Z,100.00
2022-10-24T00:23:42.022Z,100.00
2022-10-24T00:26:10.200Z,100.00
2022-10-24T00:28:38.604Z,100.00
2022-10-24T00:31:08.270Z,100.00
2022-10-24T00:33:36.091Z,100.00
2022-10-24T00:36:03.800Z,100.00
2022-10-24T00:38:31.381Z,100.00
2022-10-24T00:41:00.299Z,100.00
2022-10-24T00:43:28.312Z,100.00
2022-10-24T00:45:57.408Z,100.00
2022-10-24T00:48:29.306Z,99.31
2022-10-24T00:51:00.093Z,98.61
2022-10-24T00:53:30.159Z,98.62
2022-10-24T00:56:02.117Z,99.08
2022-10-24T00:58:33.620Z,98.24
2022-10-24T01:01:01.918Z,98.05
2022-10-24T01:03:29.767Z,98.46
2022-10-24T01:06:10.173Z,98.42
2022-10-24T01:08:45.504Z,97.97
2022-10-24T01:11:28.316Z,98.48
2022-10-24T01:14:03.217Z,99.19
2022-10-24T01:16:38.541Z,100.00
2022-10-24T01:19:27.504Z,100.00
2022-10-24T01:21:59.760Z,100.00
2022-10-24T01:24:39.731Z,100.00
2022-10-24T01:27:40.238Z,100.00
2022-10-24T01:30:10.702Z,100.00
2022-10-24T01:32:49.180Z,100.00
2022-10-24T01:35:25.537Z,100.00
2022-10-24T01:38:00.048Z,100.00
2022-10-24T01:40:32.464Z,100.00
2022-10-24T01:43:04.140Z,100.00
2022-10-24T01:45:36.480Z,100.00
2022-10-24T01:48:08.843Z,100.00
2022-10-24T01:50:38.732Z,100.00
2022-10-24T01:53:07.467Z,100.00
2022-10-24T01:55:35.519Z,99.87
2022-10-24T01:58:03.079Z,99.43
2022-10-24T02:00:30.817Z,98.85
2022-10-24T02:03:03.038Z,98.86
2022-10-24T02:05:34.768Z,98.16
2022-10-24T02:08:07.057Z,98.16
2022-10-24T02:10:40.480Z,97.96
2022-10-24T02:13:17.773Z,97.84
2022-10-24T02:15:50.177Z,97.28
2022-10-24T02:18:19.806Z,97.36
2022-10-24T02:20:54.503Z,97.33
2022-10-24T02:23:28.161Z,97.23
2022-10-24T02:25:59.929Z,96.90
2022-10-24T02:28:34.834Z,96.85
2022-10-24T02:31:07.898Z,97.13
2022-10-24T02:33:40.730Z,96.52
2022-10-24T02:36:11.473Z,96.61
2022-10-24T02:38:42.259Z,96.50
2022-10-24T02:41:14.033Z,96.59
2022-10-24T02:43:43.415Z,98.54
2022-10-24T02:46:12.166Z,99.47
2022-10-24T02:48:46.215Z,99.33
2022-10-24T02:51:15.425Z,98.61
2022-10-24T02:53:43.183Z,97.61
2022-10-24T02:56:10.817Z,98.29
2022-10-24T02:58:38.416Z,98.07
2022-10-24T03:01:06.262Z,98.03
2022-10-24T03:03:33.975Z,97.69
2022-10-24T03:06:02.985Z,97.94
2022-10-24T03:08:30.545Z,98.76
2022-10-24T03:10:58.249Z,99.80
2022-10-24T03:13:25.865Z,99.36
2022-10-24T03:15:53.498Z,99.23
2022-10-24T03:18:21.321Z,98.54
2022-10-24T03:20:48.879Z,98.84
2022-10-24T03:23:19.280Z,98.60
2022-10-24T03:25:47.181Z,98.45
2022-10-24T03:28:14.796Z,98.19
2022-10-24T03:30:42.389Z,98.15
2022-10-24T03:33:10.023Z,98.27
2022-10-24T03:35:38.162Z,98.63
2022-10-24T03:38:08.092Z,99.03
2022-10-24T03:40:37.441Z,99.01
2022-10-24T03:43:05.423Z,99.81
2022-10-24T03:45:33.009Z,100.00
2022-10-24T03:48:00.606Z,100.00
2022-10-24T03:50:28.237Z,100.00
2022-10-24T03:52:55.921Z,100.00
2022-10-24T03:55:23.909Z,100.00
2022-10-24T03:57:52.872Z,100.00
2022-10-24T04:00:20.791Z,100.00
2022-10-24T04:02:50.642Z,100.00
2022-10-24T04:05:18.730Z,100.00
2022-10-24T04:07:46.915Z,100.00
2022-10-24T04:10:14.819Z,100.00
2022-10-24T04:12:42.503Z,100.00
2022-10-24T04:15:12.344Z,100.00
2022-10-24T04:17:40.189Z,100.00
2022-10-24T04:20:09.144Z,100.00
2022-10-24T04:22:36.755Z,100.00
2022-10-24T04:25:05.354Z,100.00
2022-10-24T04:27:32.932Z,100.00
2022-10-24T04:30:00.463Z,100.00
2022-10-24T04:32:29.456Z,100.00
2022-10-24T04:34:57.023Z,100.00
2022-10-24T04:37:24.629Z,100.00
2022-10-24T04:39:53.691Z,100.00
2022-10-24T04:42:21.577Z,100.00
2022-10-24T04:44:49.144Z,100.00
2022-10-24T04:47:17.434Z,100.00
2022-10-24T04:49:46.431Z,100.00
2022-10-24T04:52:13.943Z,100.00
2022-10-24T04:54:41.601Z,100.00
2022-10-24T04:57:09.170Z,100.00
2022-10-24T04:59:36.720Z,100.00
2022-10-24T05:02:04.364Z,100.00
2022-10-24T05:04:32.066Z,100.00
2022-10-24T05:07:01.534Z,100.00
2022-10-24T05:09:29.188Z,100.00
2022-10-24T05:11:57.441Z,100.00
2022-10-24T05:14:25.500Z,100.00
2022-10-24T05:16:53.077Z,100.00
2022-10-24T05:19:20.658Z,100.00
2022-10-24T05:21:48.218Z,100.00
2022-10-24T05:24:17.542Z,100.00
2022-10-24T05:26:45.123Z,100.00
2022-10-24T05:29:12.700Z,100.00
2022-10-24T05:31:40.365Z,100.00
2022-10-24T05:34:07.967Z,100.00
2022-10-24T05:36:35.569Z,100.00
2022-10-24T05:39:03.159Z,100.00
2022-10-24T05:41:32.585Z,100.00
2022-10-24T05:44:00.327Z,100.00
2022-10-24T05:46:28.099Z,100.00
2022-10-24T05:48:55.660Z,100.00
2022-10-24T05:51:23.346Z,99.47
2022-10-24T05:53:50.933Z,98.72
2022-10-24T05:56:18.527Z,98.55
2022-10-24T05:58:47.488Z,98.37
2022-10-24T06:01:15.205Z,98.26
2022-10-24T06:03:42.864Z,98.07
2022-10-24T06:06:11.398Z,98.09
2022-10-24T06:08:39.441Z,98.11
2022-10-24T06:11:10.754Z,98.32
2022-10-24T06:13:38.686Z,98.73
2022-10-24T06:16:09.037Z,98.18
2022-10-24T06:18:37.027Z,98.49
2022-10-24T06:21:06.596Z,97.56
2022-10-24T06:23:34.723Z,96.97
2022-10-24T06:26:02.450Z,97.62
2022-10-24T06:28:29.993Z,97.25
2022-10-24T06:30:57.824Z,96.78
2022-10-24T06:33:26.826Z,96.07
2022-10-24T06:35:54.390Z,95.68
2022-10-24T06:38:21.976Z,95.59
2022-10-24T06:40:49.525Z,95.63
2022-10-24T06:43:19.459Z,95.71
2022-10-24T06:45:47.071Z,96.26
2022-10-24T06:48:14.780Z,96.30
2022-10-24T06:50:43.843Z,95.57
2022-10-24T06:53:11.840Z,95.46
2022-10-24T06:55:40.529Z,95.72
2022-10-24T06:58:08.307Z,95.07
2022-10-24T07:00:35.947Z,95.41
2022-10-24T07:03:03.503Z,95.57
2022-10-24T07:05:31.092Z,95.48
2022-10-24T07:08:00.059Z,94.87
2022-10-24T07:10:27.593Z,95.30
2022-10-24T07:12:55.161Z,95.49
2022-10-24T07:15:23.073Z,95.34
2022-10-24T07:17:50.712Z,95.56
2022-10-24T07:20:18.313Z,95.81
2022-10-24T07:22:46.076Z,95.24
2022-10-24T07:25:15.245Z,95.18
2022-10-24T07:27:43.041Z,95.07
2022-10-24T07:30:17.586Z,94.71
2022-10-24T07:32:45.424Z,94.46
2022-10-24T07:35:14.062Z,94.65
2022-10-24T07:37:41.954Z,94.06
2022-10-24T07:40:10.941Z,94.27
2022-10-24T07:42:39.884Z,94.26
2022-10-24T07:45:08.550Z,94.47
2022-10-24T07:47:36.144Z,94.21
2022-10-24T07:50:04.602Z,94.21
2022-10-24T07:52:32.205Z,94.34
2022-10-24T07:54:59.766Z,94.76
2022-10-24T07:57:28.022Z,94.28
2022-10-24T07:59:56.963Z,94.55
2022-10-24T08:02:24.524Z,94.53
2022-10-24T08:04:52.105Z,93.99
2022-10-24T08:07:19.683Z,94.58
2022-10-24T08:09:51.954Z,94.10
2022-10-24T08:12:19.577Z,93.54
2022-10-24T08:14:47.273Z,93.75
2022-10-24T08:17:18.421Z,93.55
2022-10-24T08:19:46.229Z,94.02
2022-10-24T08:22:13.838Z,94.56
2022-10-24T08:24:41.483Z,94.58
2022-10-24T08:27:09.212Z,95.18
2022-10-24T08:29:37.105Z,95.11
2022-10-24T08:32:06.745Z,95.53
2022-10-24T08:34:35.857Z,95.58
2022-10-24T08:37:06.278Z,95.90
2022-10-24T08:39:33.891Z,95.88
2022-10-24T08:42:04.941Z,95.23
2022-10-24T08:44:35.649Z,94.75
2022-10-24T08:47:09.815Z,94.15
2022-10-24T08:49:47.826Z,94.22
2022-10-24T08:52:24.565Z,93.73
2022-10-24T08:54:53.477Z,92.44
2022-10-24T08:57:25.996Z,90.65
2022-10-24T08:59:58.026Z,89.24
2022-10-24T09:02:28.078Z,87.47
2022-10-24T09:05:00.528Z,84.81
2022-10-24T09:07:28.668Z,80.80
2022-10-24T09:10:06.684Z,77.13
2022-10-24T09:12:36.719Z,75.29
2022-10-24T09:15:14.962Z,73.15
2022-10-24T09:17:44.007Z,68.44
2022-10-24T09:20:24.235Z,63.21
2022-10-24T09:22:52.361Z,58.17
2022-10-24T09:25:23.106Z,54.01
2022-10-24T09:27:51.622Z,52.21
2022-10-24T09:30:22.081Z,50.83
2022-10-24T09:32:49.829Z,44.03
2022-10-24T09:35:22.983Z,41.56
2022-10-24T09:37:52.543Z,41.00
2022-10-24T09:40:23.360Z,43.47
2022-10-24T09:42:55.357Z,47.41
2022-10-24T09:45:38.624Z,51.77
2022-10-24T09:48:17.646Z,53.29
2022-10-24T09:50:49.544Z,55.87
2022-10-24T09:53:27.323Z,59.33
2022-10-24T09:55:58.042Z,61.67
2022-10-24T09:58:32.637Z,64.33
2022-10-24T10:01:03.881Z,66.16
2022-10-24T10:03:31.630Z,67.16
2022-10-24T10:06:04.517Z,68.59
2022-10-24T10:08:33.895Z,68.72
2022-10-24T10:11:05.973Z,68.61
2022-10-24T10:13:38.583Z,68.11
2022-10-24T10:16:10.751Z,68.53
2022-10-24T10:18:46.968Z,68.55
2022-10-24T10:21:18.342Z,67.19
2022-10-24T10:23:47.842Z,68.31
2022-10-24T10:26:22.570Z,67.11
2022-10-24T10:29:21.747Z,67.64
2022-10-24T10:31:54.058Z,68.30
2022-10-24T10:34:29.739Z,68.66
2022-10-24T10:37:24.387Z,69.40
2022-10-24T10:40:24.468Z,68.85
2022-10-24T10:43:05.191Z,67.40
2022-10-24T10:45:36.999Z,66.33
2022-10-24T10:48:21.021Z,64.76
2022-10-24T10:50:55.365Z,56.84
2022-10-24T10:53:32.488Z,52.21
2022-10-24T10:56:07.535Z,53.17
2022-10-24T10:58:44.417Z,55.43
2022-10-24T11:01:21.945Z,57.26
2022-10-24T11:03:55.106Z,57.42
2022-10-24T11:06:33.206Z,56.23
2022-10-24T11:09:27.580Z,51.57
2022-10-24T11:12:03.961Z,47.93
2022-10-24T11:14:36.071Z,43.13
2022-10-24T11:17:11.938Z,40.54
2022-10-24T11:19:53.980Z,41.15
2022-10-24T11:22:26.198Z,40.43
2022-10-24T11:25:01.285Z,40.91
2022-10-24T11:27:37.862Z,43.21
2022-10-24T11:30:13.391Z,45.24
2022-10-24T11:32:45.631Z,47.18
2022-10-24T11:35:23.208Z,48.43
2022-10-24T11:37:53.736Z,49.31
2022-10-24T11:40:25.639Z,49.61
2022-10-24T11:42:59.192Z,49.23
2022-10-24T11:45:30.057Z,47.95
2022-10-24T11:48:11.618Z,47.36
2022-10-24T11:50:43.737Z,47.29
2022-10-24T11:53:24.345Z,47.19
2022-10-24T11:55:57.854Z,47.67
2022-10-24T11:58:28.908Z,48.85
2022-10-24T12:01:14.515Z,50.08
2022-10-24T12:04:15.097Z,51.86
2022-10-24T12:07:23.752Z,51.38
2022-10-24T12:10:15.833Z,51.14
2022-10-24T12:13:22.105Z,49.88
2022-10-24T12:16:00.576Z,50.26
2022-10-24T12:18:34.204Z,50.75
2022-10-24T12:21:05.282Z,51.18
2022-10-24T12:23:33.548Z,52.31
2022-10-24T12:26:06.637Z,53.32
2022-10-24T12:28:36.418Z,53.83
2022-10-24T12:31:22.346Z,53.49
2022-10-24T12:34:27.326Z,52.05
2022-10-24T12:37:14.125Z,50.53
2022-10-24T12:39:47.152Z,49.18
2022-10-24T12:42:17.476Z,48.21
2022-10-24T12:44:50.405Z,48.00
2022-10-24T12:47:39.944Z,46.54
2022-10-24T12:50:44.903Z,46.26
2022-10-24T12:53:35.030Z,45.00
2022-10-24T12:56:15.510Z,44.91
2022-10-24T12:58:45.484Z,46.85
2022-10-24T13:01:27.269Z,47.05
2022-10-24T13:04:21.562Z,48.43
2022-10-24T13:07:01.416Z,49.54
2022-10-24T13:09:39.289Z,50.80
2022-10-24T13:12:32.352Z,51.79
2022-10-24T13:15:14.631Z,52.91
2022-10-24T13:17:50.168Z,53.14
2022-10-24T13:20:22.541Z,53.62
2022-10-24T13:22:51.706Z,53.98
2022-10-24T13:25:33.579Z,54.98
2022-10-24T13:28:38.973Z,54.44
2022-10-24T13:31:42.810Z,53.07
2022-10-24T13:34:31.535Z,52.54
2022-10-24T13:37:03.630Z,52.10
2022-10-24T13:39:37.494Z,51.44
2022-10-24T13:42:19.921Z,49.43
2022-10-24T13:44:50.929Z,47.93
2022-10-24T13:47:23.742Z,48.03
2022-10-24T13:49:58.899Z,47.63
2022-10-24T13:52:33.698Z,49.08
2022-10-24T13:55:06.085Z,49.16
2022-10-24T13:57:37.980Z,50.02
2022-10-24T14:00:09.550Z,50.50
2022-10-24T14:02:42.757Z,50.38
2022-10-24T14:05:24.609Z,50.82
2022-10-24T14:07:52.528Z,51.26
2022-10-24T14:10:22.502Z,51.50
2022-10-24T14:12:51.916Z,52.09
2022-10-24T14:15:22.368Z,52.19
2022-10-24T14:17:58.815Z,52.69
2022-10-24T14:20:29.959Z,52.62
2022-10-24T14:22:58.043Z,52.56
2022-10-24T14:25:32.981Z,52.73
2022-10-24T14:28:03.281Z,53.67
2022-10-24T14:30:34.947Z,53.09
2022-10-24T14:33:25.387Z,52.75
2022-10-24T14:35:57.969Z,53.59
2022-10-24T14:38:27.764Z,53.54
2022-10-24T14:41:08.338Z,54.11
2022-10-24T14:43:39.829Z,54.62
2022-10-24T14:46:27.941Z,53.52
2022-10-24T14:48:55.728Z,52.59
2022-10-24T14:51:28.116Z,53.48
2022-10-24T14:53:56.894Z,51.99
2022-10-24T14:56:28.285Z,52.61
2022-10-24T14:58:58.124Z,51.77
2022-10-24T15:01:26.235Z,51.96
2022-10-24T15:03:55.834Z,52.98
2022-10-24T15:06:27.542Z,54.93
2022-10-24T15:09:04.784Z,57.66
2022-10-24T15:11:40.259Z,58.83
2022-10-24T15:14:39.445Z,57.51
2022-10-24T15:17:25.858Z,56.30
2022-10-24T15:19:58.346Z,56.09
2022-10-24T15:22:30.308Z,56.40
2022-10-24T15:25:00.796Z,56.74
2022-10-24T15:27:31.888Z,57.00
2022-10-24T15:29:59.479Z,57.32
2022-10-24T15:32:27.091Z,58.06
2022-10-24T15:34:55.716Z,58.02
2022-10-24T15:37:25.763Z,58.18
2022-10-24T15:39:55.807Z,58.87
2022-10-24T15:42:23.519Z,57.74
2022-10-24T15:44:51.178Z,57.17
2022-10-24T15:47:23.726Z,57.44
2022-10-24T15:49:52.118Z,58.06
2022-10-24T15:52:19.746Z,57.58
2022-10-24T15:54:47.371Z,57.94
2022-10-24T15:57:17.323Z,57.45
2022-10-24T15:59:44.940Z,58.05
2022-10-24T16:02:17.836Z,57.43
2022-10-24T16:04:45.529Z,57.36
2022-10-24T16:07:13.191Z,56.53
2022-10-24T16:09:40.842Z,56.08
2022-10-24T16:12:08.969Z,58.36
2022-10-24T16:14:37.934Z,57.19
2022-10-24T16:17:05.628Z,56.46
2022-10-24T16:19:33.262Z,56.11
2022-10-24T16:22:01.505Z,57.74
2022-10-24T16:24:29.949Z,56.55
2022-10-24T16:26:57.669Z,56.24
2022-10-24T16:29:25.342Z,58.20
2022-10-24T16:31:54.320Z,58.05
2022-10-24T16:34:23.410Z,59.19
2022-10-24T16:36:54.357Z,60.58
2022-10-24T16:39:21.937Z,59.57
2022-10-24T16:41:49.482Z,58.63
2022-10-24T16:44:17.135Z,58.91
2022-10-24T16:46:44.698Z,60.56
2022-10-24T16:49:13.658Z,60.07
2022-10-24T16:51:43.971Z,60.64
2022-10-24T16:54:11.868Z,61.17
2022-10-24T16:56:39.484Z,61.04
2022-10-24T16:59:09.279Z,61.70
2022-10-24T17:01:39.470Z,62.20
2022-10-24T17:04:07.221Z,63.08
2022-10-24T17:06:36.435Z,63.88
2022-10-24T17:09:04.180Z,64.61
2022-10-24T17:11:45.048Z,65.05
2022-10-24T17:14:14.008Z,66.35
2022-10-24T17:16:42.097Z,67.60
2022-10-24T17:19:16.102Z,69.03
2022-10-24T17:21:48.085Z,69.73
2022-10-24T17:24:19.017Z,69.95
2022-10-24T17:26:46.947Z,70.99
2022-10-24T17:29:18.794Z,71.62
2022-10-24T17:31:46.590Z,72.68
2022-10-24T17:34:14.446Z,73.26
2022-10-24T17:36:47.942Z,74.66
2022-10-24T17:41:54.567Z,77.58
2022-10-24T17:44:22.952Z,78.00
2022-10-24T17:46:54.649Z,78.69
2022-10-24T17:49:26.177Z,78.32
2022-10-24T17:51:53.979Z,77.90
2022-10-24T17:54:23.303Z,77.07
2022-10-24T17:56:50.994Z,76.65
2022-10-24T17:59:18.644Z,75.82
2022-10-24T18:01:46.346Z,75.38
2022-10-24T18:04:14.292Z,75.11
2022-10-24T18:06:43.474Z,74.05
2022-10-24T18:09:11.528Z,73.17
2022-10-24T18:11:41.021Z,72.93
2022-10-24T18:14:08.678Z,72.88
2022-10-24T18:16:38.254Z,72.43
2022-10-24T18:19:06.357Z,72.53
2022-10-24T18:21:34.114Z,71.87
2022-10-24T18:24:01.764Z,70.83
2022-10-24T18:26:29.487Z,71.67
2022-10-24T18:28:58.976Z,71.32
2022-10-24T18:31:28.172Z,71.71
2022-10-24T18:33:56.768Z,72.08
2022-10-24T18:36:26.079Z,72.79
2022-10-24T18:38:55.694Z,72.97
2022-10-24T18:41:34.543Z,73.66
2022-10-24T18:44:13.533Z,74.80
2022-10-24T18:46:41.955Z,75.44
2022-10-24T18:49:11.268Z,75.43
2022-10-24T18:51:43.411Z,76.16
2022-10-24T18:56:50.743Z,77.27
2022-10-24T18:59:21.990Z,77.89
2022-10-24T19:02:01.676Z,78.06
2022-10-24T19:04:29.587Z,78.22
2022-10-24T19:07:01.547Z,78.78
2022-10-24T19:09:29.273Z,79.59
2022-10-24T19:11:57.151Z,80.10
2022-10-24T19:14:27.925Z,80.76
2022-10-24T19:16:59.123Z,82.13
2022-10-24T19:19:30.118Z,83.07
2022-10-24T19:21:57.890Z,83.97
2022-10-24T19:24:25.478Z,84.96
2022-10-24T19:26:53.090Z,85.60
2022-10-24T19:29:20.667Z,86.28
2022-10-24T19:31:49.641Z,86.44
2022-10-24T19:34:17.430Z,87.04
2022-10-24T19:36:45.045Z,86.22
2022-10-24T19:39:12.710Z,86.55
2022-10-24T19:41:40.284Z,87.48
2022-10-24T19:44:07.891Z,88.06
2022-10-24T19:46:35.500Z,87.77
2022-10-24T19:49:04.795Z,88.60
2022-10-24T19:51:32.373Z,88.86
2022-10-24T19:53:59.948Z,88.95
2022-10-24T19:56:29.051Z,89.69
2022-10-24T19:58:56.969Z,88.79
2022-10-24T20:01:29.980Z,88.64
2022-10-24T20:03:58.275Z,88.50
2022-10-24T20:06:27.340Z,88.55
2022-10-24T20:08:55.363Z,88.42
2022-10-24T20:11:23.632Z,87.71
2022-10-24T20:13:51.586Z,86.36
2022-10-24T20:16:19.670Z,85.53
2022-10-24T20:18:47.753Z,83.96
2022-10-24T20:21:17.775Z,84.46
2022-10-24T20:23:47.188Z,84.64
2022-10-24T20:26:17.015Z,85.29
2022-10-24T20:28:47.011Z,85.58
2022-10-24T20:31:22.637Z,85.99
2022-10-24T20:33:50.513Z,85.34
2022-10-24T20:36:18.834Z,86.22
2022-10-24T20:38:47.796Z,86.19
2022-10-24T20:41:15.584Z,86.21
2022-10-24T20:43:43.254Z,85.80
2022-10-24T20:46:10.899Z,86.64
2022-10-24T20:48:38.562Z,86.63
2022-10-24T20:51:08.818Z,87.14
2022-10-24T20:53:36.748Z,87.57
2022-10-24T20:56:07.573Z,87.85
2022-10-24T20:58:37.598Z,87.70
2022-10-24T21:01:08.666Z,87.74
2022-10-24T21:03:36.679Z,88.15
2022-10-24T21:06:05.228Z,88.51
2022-10-24T21:08:32.877Z,89.03
2022-10-24T21:11:00.460Z,89.09
2022-10-24T21:13:29.466Z,89.96
2022-10-24T21:15:57.625Z,90.71
2022-10-24T21:18:25.173Z,89.94
2022-10-24T21:20:52.748Z,89.65
2022-10-24T21:23:20.360Z,89.33
2022-10-24T21:25:47.895Z,90.24
2022-10-24T21:28:15.494Z,90.23
2022-10-24T21:30:44.402Z,90.12
2022-10-24T21:33:11.956Z,90.99
2022-10-24T21:35:40.031Z,91.90
2022-10-24T21:38:07.593Z,91.86
2022-10-24T21:40:35.214Z,91.64
2022-10-24T21:43:03.029Z,91.24
2022-10-24T21:45:31.744Z,91.84
2022-10-24T21:48:00.621Z,91.45
2022-10-24T21:50:28.166Z,91.43
2022-10-24T21:52:55.707Z,90.97
2022-10-24T21:55:23.301Z,91.03
2022-10-24T21:57:50.869Z,91.31
2022-10-24T22:00:18.595Z,90.52
2022-10-24T22:02:46.662Z,90.32
2022-10-24T22:05:15.857Z,90.24
2022-10-24T22:07:46.148Z,90.58
2022-10-24T22:10:16.725Z,90.63
2022-10-24T22:12:44.285Z,91.56
2022-10-24T22:15:12.064Z,91.53
2022-10-24T22:17:39.741Z,91.13
2022-10-24T22:20:08.163Z,91.42
2022-10-24T22:22:37.054Z,91.08
2022-10-24T22:25:05.207Z,91.75
2022-10-24T22:27:32.812Z,90.96
2022-10-24T22:30:00.356Z,91.21
2022-10-24T22:32:28.298Z,91.67
2022-10-24T22:34:56.385Z,91.15
2022-10-24T22:37:28.798Z,91.77
2022-10-24T22:39:58.184Z,91.87
2022-10-24T22:42:26.082Z,91.99
2022-10-24T22:44:54.297Z,92.10
2022-10-24T22:47:45.802Z,92.11
2022-10-24T22:50:29.474Z,92.92
2022-10-24T22:52:57.542Z,93.11
2022-10-24T22:55:32.798Z,92.99
2022-10-24T22:58:00.858Z,93.67
2022-10-24T23:00:28.803Z,93.62
2022-10-24T23:03:05.087Z,93.51
2022-10-24T23:05:38.645Z,94.44
2022-10-24T23:08:10.608Z,93.78
2022-10-24T23:10:40.160Z,94.02
2022-10-24T23:13:09.330Z,93.68
2022-10-24T23:15:37.475Z,93.88
2022-10-24T23:18:05.575Z,93.85
2022-10-24T23:20:36.525Z,94.39
2022-10-24T23:23:24.630Z,94.69
2022-10-24T23:26:02.913Z,93.66
2022-10-24T23:28:37.361Z,94.24
2022-10-24T23:31:05.550Z,94.29
2022-10-24T23:33:33.730Z,94.26
2022-10-24T23:36:01.772Z,94.55
2022-10-24T23:38:29.929Z,94.93
2022-10-24T23:40:59.636Z,94.28
2022-10-24T23:43:27.733Z,94.49
2022-10-24T23:46:00.139Z,94.46
2022-10-24T23:48:45.021Z,93.41
2022-10-24T23:51:15.653Z,93.46
2022-10-24T23:53:50.232Z,93.88
2022-10-24T23:56:21.289Z,93.87
2022-10-24T23:58:48.927Z,93.46
